East Troy, Wisconsin
Current Conditions -  °F | °C
As of 11:55 PM on Saturday 22 Nov 2014 (Local Time) from KBUU Reporting Station
Overcast Overcast  
Wind Chill: 42°   Ceiling: 2300
Heat Index: 47°   Visibility: 10mi
Dew Point: 46°   Wind: 13mph
Humidity: 93%   Direction: 200°SSW
Pressure: 29.8"   Gusts: 17mph
Location:  42.79°N, 88.41°W
Report Text: KBUU 230555Z AUTO 20011G15KT 10SM OVC023 09/08 A2980 RMK AO2 T00850075 10085 20059 400851007
Loading
Personal Weather Stations






























Interactive Weather Map New forecast layout! Learn more

10-Day Weather Forecast

Advertisements
Track Severe Weather on mobile